Time;durP1;ratioP1;P1;durP2;ratioP2;P2;SDS_P1;SDS_P2;PMS_P1;PMS_P2;Temp;Humidity;BMP_temperature;BMP_pressure;BME280_temperature;BME280_humidity;BME280_pressure;Samples;Min_cycle;Max_cycle;Signal;HPM_P1;HPM_P2
2021/10/15 00:00:36;;;;;;;16.07;8.67;;;;;;;11.57;95.39;100722.56;5112467;27;20268;-77
2021/10/15 00:03:02;;;;;;;14.60;8.30;;;;;;;11.50;95.72;100721.59;5130012;27;20027;-77
2021/10/15 00:05:31;;;;;;;21.15;9.50;;;;;;;11.60;95.84;100715.03;5128962;27;20031;-77
2021/10/15 00:07:56;;;;;;;11.68;7.93;;;;;;;11.60;95.84;100714.19;5129057;27;20092;-77
2021/10/15 00:10:22;;;;;;;15.37;8.33;;;;;;;11.61;95.75;100715.84;5129102;27;20035;-77
2021/10/15 00:12:47;;;;;;;21.27;9.55;;;;;;;11.53;96.19;100706.03;5111982;27;20034;-77
2021/10/15 00:15:13;;;;;;;13.23;7.97;;;;;;;11.46;95.90;100685.50;5130096;27;20088;-81
2021/10/15 00:17:39;;;;;;;14.07;8.38;;;;;;;11.53;96.01;100694.50;5130665;27;20647;-83
2021/10/15 00:20:05;;;;;;;15.03;8.40;;;;;;;11.55;96.13;100693.31;5113628;27;20038;-84
2021/10/15 00:22:31;;;;;;;21.90;9.90;;;;;;;11.47;95.88;100684.47;5130535;27;20284;-85
2021/10/15 00:24:56;;;;;;;16.15;8.13;;;;;;;11.46;95.46;100680.13;5131128;27;20023;-82
2021/10/15 00:27:22;;;;;;;17.00;9.57;;;;;;;11.48;96.13;100683.47;5129998;27;20061;-81
2021/10/15 00:29:47;;;;;;;19.23;9.13;;;;;;;11.44;96.12;100676.78;5112928;27;20486;-81
2021/10/15 00:32:13;;;;;;;13.25;7.53;;;;;;;11.57;95.90;100671.78;5130383;27;20455;-83
2021/10/15 00:34:39;;;;;;;17.57;8.80;;;;;;;11.46;95.83;100653.41;5112800;27;20027;-83
2021/10/15 00:37:05;;;;;;;19.60;8.00;;;;;;;11.40;95.77;100646.88;5129605;27;20035;-82
2021/10/15 00:39:31;;;;;;;;;;;;;;;11.49;96.04;100653.06;5113168;27;20031;-82
2021/10/15 00:41:56;;;;;;;;;;;;;;;11.54;95.72;100653.38;5113317;27;20406;-81
2021/10/15 00:44:22;;;;;;;19.00;8.57;;;;;;;11.51;95.68;100643.84;5130183;27;19923;-82
2021/10/15 00:46:47;;;;;;;14.67;7.60;;;;;;;11.46;95.95;100627.50;5129805;27;20073;-82
2021/10/15 00:49:14;;;;;;;33.17;9.60;;;;;;;11.56;95.85;100619.28;5130675;27;20031;-83
2021/10/15 00:51:45;;;;;;;17.65;8.48;;;;;;;11.44;95.79;100618.00;5112802;28;20531;-83
2021/10/15 00:54:13;;;;;;;16.08;8.18;;;;;;;11.44;96.41;100608.13;5111672;27;20142;-82
2021/10/15 00:56:40;;;;;;;18.60;9.40;;;;;;;11.43;96.32;100613.66;5130585;27;20034;-84
2021/10/15 00:59:06;;;;;;;18.45;8.38;;;;;;;11.41;96.09;100603.97;5130794;27;20130;-82
2021/10/15 01:01:31;;;;;;;18.00;10.40;;;;;;;11.43;95.88;100611.81;5113013;28;20137;-82
2021/10/15 01:03:59;;;;;;;14.40;8.00;;;;;;;11.39;96.08;100599.78;5129425;28;20050;-82
2021/10/15 01:06:26;;;;;;;15.93;8.15;;;;;;;11.40;96.66;100596.09;5112403;28;20034;-81
2021/10/15 01:08:51;;;;;;;23.15;10.25;;;;;;;11.47;95.80;100591.75;5130771;28;20146;-84
2021/10/15 01:11:17;;;;;;;13.82;8.95;;;;;;;11.49;95.87;100589.72;5129912;27;20519;-82
2021/10/15 01:13:44;;;;;;;23.70;10.65;;;;;;;11.51;95.76;100586.88;5130781;27;20037;-83
2021/10/15 01:16:11;;;;;;;15.75;8.35;;;;;;;11.48;96.05;100588.06;5129945;27;20070;-82
2021/10/15 01:18:39;;;;;;;16.75;9.30;;;;;;;11.42;96.16;100583.41;5130166;27;20022;-82
2021/10/15 01:21:09;;;;;;;17.42;9.50;;;;;;;11.52;96.09;100583.19;5130714;28;20058;-83
2021/10/15 01:23:36;;;;;;;17.05;9.05;;;;;;;11.47;95.79;100578.41;5129427;27;20042;-83
2021/10/15 01:26:03;;;;;;;15.65;8.52;;;;;;;11.42;95.76;100567.34;5112420;28;20031;-84
2021/10/15 01:28:30;;;;;;;20.98;8.98;;;;;;;11.45;95.68;100560.84;5112653;28;20408;-82
2021/10/15 01:30:56;;;;;;;13.98;8.68;;;;;;;11.47;95.67;100556.16;5129224;28;20043;-82
2021/10/15 01:33:23;;;;;;;18.42;10.60;;;;;;;11.40;95.67;100548.84;5128918;28;20031;-82
2021/10/15 01:35:48;;;;;;;15.63;8.75;;;;;;;11.41;96.11;100561.19;5129195;28;20039;-81
2021/10/15 01:38:14;;;;;;;22.13;9.57;;;;;;;11.38;95.95;100550.03;5129010;27;20125;-82
2021/10/15 01:40:40;;;;;;;19.35;8.85;;;;;;;11.45;96.10;100550.13;5112190;28;20019;-81
2021/10/15 01:43:06;;;;;;;17.95;8.45;;;;;;;11.48;95.74;100539.13;5111961;28;20042;-82
2021/10/15 01:45:33;;;;;;;17.92;8.35;;;;;;;11.47;95.59;100537.44;5110814;28;20039;-82
2021/10/15 01:48:00;;;;;;;15.52;8.68;;;;;;;11.45;95.54;100526.06;5130074;27;20363;-83
2021/10/15 01:50:28;;;;;;;17.17;8.43;;;;;;;11.51;95.18;100522.72;5132444;27;20035;-82
2021/10/15 01:52:55;;;;;;;17.60;8.35;;;;;;;11.37;94.92;100511.75;5115830;27;20034;-82
2021/10/15 01:55:21;;;;;;;15.77;8.25;;;;;;;11.44;95.12;100505.72;5115090;27;20073;-87
2021/10/15 01:57:47;;;;;;;15.45;7.35;;;;;;;11.50;94.95;100511.19;5133891;27;20101;-81
2021/10/15 02:00:14;;;;;;;14.32;7.95;;;;;;;11.45;94.85;100508.22;5134204;27;20031;-87
2021/10/15 02:02:42;;;;;;;13.63;8.70;;;;;;;11.48;94.64;100515.88;5133692;27;20106;-83
2021/10/15 02:05:11;;;;;;;14.20;7.85;;;;;;;11.46;94.25;100514.41;5132622;27;20080;-83
2021/10/15 02:07:38;;;;;;;17.20;8.23;;;;;;;11.44;94.45;100495.03;5132245;27;20646;-82
2021/10/15 02:10:05;;;;;;;17.17;7.38;;;;;;;11.38;94.99;100489.38;5132548;27;20095;-81
2021/10/15 02:12:31;;;;;;;15.48;8.52;;;;;;;11.50;94.63;100475.63;5132953;27;20107;-81
2021/10/15 02:14:56;;;;;;;16.83;8.13;;;;;;;11.45;94.11;100464.59;5132404;27;20039;-83
2021/10/15 02:17:21;;;;;;;14.43;7.37;;;;;;;11.48;94.31;100467.78;5116059;27;20027;-81
2021/10/15 02:19:47;;;;;;;13.30;7.27;;;;;;;11.46;94.57;100466.28;5132820;27;20039;-83
2021/10/15 02:22:12;;;;;;;15.57;8.67;;;;;;;11.55;94.16;100470.56;5132119;27;20132;-82
2021/10/15 02:24:38;;;;;;;14.30;7.30;;;;;;;11.44;94.54;100444.22;5114868;27;20613;-82
2021/10/15 02:27:04;;;;;;;13.63;7.63;;;;;;;11.53;94.70;100473.41;5115359;27;20053;-82
2021/10/15 02:29:30;;;;;;;12.85;6.93;;;;;;;11.51;94.24;100453.22;5133413;27;20333;-82
2021/10/15 02:31:55;;;;;;;14.27;8.32;;;;;;;11.55;94.60;100459.88;5132999;27;20046;-82
2021/10/15 02:34:21;;;;;;;14.80;7.88;;;;;;;11.51;94.21;100450.53;5131973;27;20479;-82
2021/10/15 02:36:47;;;;;;;13.27;7.20;;;;;;;11.60;94.23;100446.81;5132139;27;20039;-82
2021/10/15 02:39:13;;;;;;;14.98;7.88;;;;;;;11.58;93.80;100438.13;5115096;27;20083;-82
2021/10/15 02:41:39;;;;;;;13.37;8.00;;;;;;;11.56;93.95;100418.75;5131700;27;20023;-83
2021/10/15 02:44:05;;;;;;;22.45;10.20;;;;;;;11.51;94.06;100421.97;5131033;27;20288;-82
2021/10/15 02:46:31;;;;;;;15.30;7.43;;;;;;;11.58;94.12;100424.75;5130965;27;20049;-82
2021/10/15 02:48:56;;;;;;;13.70;7.30;;;;;;;11.58;94.17;100422.09;5114289;27;20387;-83
2021/10/15 02:51:22;;;;;;;13.03;7.77;;;;;;;11.64;93.69;100417.91;5130643;27;20065;-82
2021/10/15 02:53:47;;;;;;;12.80;6.97;;;;;;;11.61;93.85;100413.69;5131040;27;20038;-82
2021/10/15 02:56:13;;;;;;;14.53;7.63;;;;;;;11.67;93.88;100415.69;5132248;27;20046;-82
2021/10/15 02:58:38;;;;;;;13.23;7.57;;;;;;;11.64;93.36;100394.66;5131653;27;20057;-81
2021/10/15 03:01:04;;;;;;;10.07;6.97;;;;;;;11.67;93.20;100388.94;5132021;27;20110;-82
2021/10/15 03:03:29;;;;;;;13.73;6.80;;;;;;;11.75;92.99;100394.25;5131146;27;20034;-82
2021/10/15 03:05:55;;;;;;;14.37;6.83;;;;;;;11.77;93.18;100378.81;5130779;27;20042;-83
2021/10/15 03:08:20;;;;;;;12.83;7.07;;;;;;;11.70;93.40;100383.22;5131873;27;20045;-83
2021/10/15 03:10:45;;;;;;;17.10;6.80;;;;;;;11.78;93.26;100385.84;5131229;27;20043;-83
2021/10/15 03:13:11;;;;;;;15.07;7.87;;;;;;;11.80;93.27;100373.13;5131866;27;20031;-81
2021/10/15 03:15:37;;;;;;;;;;;;;;;11.79;93.04;100358.09;5131829;27;20076;-81
2021/10/15 03:18:03;;;;;;;14.63;7.20;;;;;;;11.68;92.96;100342.47;5131110;27;19915;-82
2021/10/15 03:20:28;;;;;;;12.77;6.47;;;;;;;11.86;92.69;100360.88;5131880;27;20027;-81
2021/10/15 03:22:54;;;;;;;20.67;6.93;;;;;;;11.74;93.39;100349.78;5131873;27;20122;-83
2021/10/15 03:25:19;;;;;;;17.97;7.77;;;;;;;11.88;93.29;100347.38;5113657;27;20035;-80
2021/10/15 03:27:46;;;;;;;16.95;7.57;;;;;;;11.87;93.16;100345.66;5114961;27;20858;-84
2021/10/15 03:30:11;;;;;;;19.47;7.33;;;;;;;11.85;93.11;100327.13;5131156;27;20034;-82
2021/10/15 03:32:36;;;;;;;15.27;7.70;;;;;;;11.87;93.66;100335.84;5130855;27;20055;-84
2021/10/15 03:35:02;;;;;;;15.70;7.10;;;;;;;11.82;93.22;100322.13;5130782;27;20027;-82
2021/10/15 03:37:28;;;;;;;18.02;7.53;;;;;;;11.86;93.79;100327.94;5130909;27;20027;-80
2021/10/15 03:39:53;;;;;;;13.10;7.13;;;;;;;11.87;93.67;100343.88;5113557;27;20421;-81
2021/10/15 03:42:19;;;;;;;10.40;6.60;;;;;;;11.96;93.34;100339.25;5131574;27;20374;-83
2021/10/15 03:44:45;;;;;;;14.93;7.07;;;;;;;11.86;93.72;100335.97;5130613;27;20076;-82
2021/10/15 03:47:11;;;;;;;13.60;7.90;;;;;;;11.92;93.37;100337.97;5130730;27;20046;-80
2021/10/15 03:49:37;;;;;;;10.07;6.50;;;;;;;11.75;93.93;100310.47;5130354;27;20035;-81
2021/10/15 03:52:03;;;;;;;13.82;7.45;;;;;;;11.90;93.67;100334.63;5130651;27;20050;-82
2021/10/15 03:54:28;;;;;;;15.77;8.45;;;;;;;11.90;93.66;100321.25;5129624;27;20081;-83
2021/10/15 03:56:54;;;;;;;16.10;7.07;;;;;;;11.88;93.88;100326.78;5131395;27;20031;-85
2021/10/15 03:59:19;;;;;;;16.33;6.67;;;;;;;11.91;93.51;100312.22;5113659;27;20078;-83
2021/10/15 04:01:45;;;;;;;21.13;9.70;;;;;;;11.86;93.87;100310.06;5130194;27;20146;-80
2021/10/15 04:04:10;;;;;;;19.37;7.20;;;;;;;11.88;94.27;100310.75;5129801;27;20039;-81
2021/10/15 04:06:35;;;;;;;15.03;7.13;;;;;;;11.90;93.95;100305.22;5131159;27;20058;-81
2021/10/15 04:09:02;;;;;;;10.87;7.33;;;;;;;11.90;93.90;100297.19;5113348;27;20121;-82
2021/10/15 04:11:28;;;;;;;18.75;7.30;;;;;;;11.85;93.73;100287.00;5129247;27;20035;-83
2021/10/15 04:13:53;;;;;;;14.82;6.90;;;;;;;11.92;93.87;100296.00;5130871;27;20035;-82
2021/10/15 04:16:19;;;;;;;11.02;6.53;;;;;;;11.90;93.87;100289.16;5131194;27;20360;-82
2021/10/15 04:18:44;;;;;;;15.47;7.60;;;;;;;11.96;93.62;100283.06;5113365;27;20196;-82
2021/10/15 04:21:10;;;;;;;13.47;7.13;;;;;;;11.96;93.70;100285.75;5131277;27;20818;-83
2021/10/15 04:23:35;;;;;;;18.47;8.17;;;;;;;11.90;93.59;100268.59;5129980;27;20027;-81
2021/10/15 04:26:02;;;;;;;14.30;8.55;;;;;;;11.87;95.51;100286.81;5130671;27;20098;-81
2021/10/15 04:28:27;;;;;;;15.60;8.60;;;;;;;11.71;96.32;100287.81;5130428;27;20505;-79
2021/10/15 04:30:52;;;;;;;16.43;7.60;;;;;;;11.76;96.83;100290.75;5129550;27;20114;-81
2021/10/15 04:33:18;;;;;;;14.57;8.57;;;;;;;11.65;97.04;100273.31;5112976;27;20126;-82
2021/10/15 04:35:44;;;;;;;20.33;9.13;;;;;;;11.76;97.02;100286.25;5129929;27;20134;-82
2021/10/15 04:38:09;;;;;;;16.83;9.73;;;;;;;11.71;97.58;100280.63;5112186;27;20280;-80
2021/10/15 04:40:35;;;;;;;19.92;9.50;;;;;;;11.63;98.75;100272.66;5129970;27;20065;-80
2021/10/15 04:43:01;;;;;;;24.05;11.18;;;;;;;11.52;99.67;100273.06;5112004;28;20124;-80
2021/10/15 04:45:26;;;;;;;19.00;11.90;;;;;;;11.47;100.00;100267.44;5130993;27;20031;-84
2021/10/15 04:47:52;;;;;;;19.03;11.63;;;;;;;11.35;100.00;100273.22;5130930;27;20050;-83
2021/10/15 04:50:18;;;;;;;19.02;12.55;;;;;;;11.31;100.00;100277.28;5129803;27;20035;-80
2021/10/15 04:52:43;;;;;;;24.03;12.40;;;;;;;11.31;100.00;100271.94;5129990;27;20467;-80
2021/10/15 04:55:09;;;;;;;23.02;14.13;;;;;;;11.24;100.00;100270.97;5129039;27;20127;-80
2021/10/15 04:57:34;;;;;;;27.42;15.70;;;;;;;11.27;100.00;100280.47;5129327;27;20031;-80
2021/10/15 05:00:02;;;;;;;31.00;16.55;;;;;;;11.18;100.00;100277.03;5111511;28;20051;-79
2021/10/15 05:02:27;;;;;;;;;;;;;;;11.11;100.00;100279.56;5129000;27;20015;-78
2021/10/15 05:04:53;;;;;;;;;;;;;;;11.15;100.00;100286.22;5128613;28;20378;-78
2021/10/15 05:07:19;;;;;;;25.13;15.90;;;;;;;11.16;100.00;100279.88;5129355;27;19930;-78
2021/10/15 05:09:44;;;;;;;32.28;18.55;;;;;;;11.08;100.00;100273.75;5128245;28;20095;-80
2021/10/15 05:12:16;;;;;;;26.05;16.02;;;;;;;11.05;100.00;100266.09;5128235;27;20560;-80
2021/10/15 05:14:43;;;;;;;36.35;19.88;;;;;;;11.04;100.00;100259.09;5128605;27;20092;-82
2021/10/15 05:17:09;;;;;;;;;;;;;;;11.02;100.00;100269.13;5129960;27;20109;-80
2021/10/15 05:19:35;;;;;;;36.67;20.13;;;;;;;10.94;100.00;100257.47;5129855;27;19912;-83
2021/10/15 05:22:01;;;;;;;33.13;19.70;;;;;;;10.92;100.00;100256.81;5130989;28;20452;-83
2021/10/15 05:24:27;;;;;;;39.13;21.45;;;;;;;10.91;100.00;100254.31;5132854;27;20031;-80
2021/10/15 05:26:53;;;;;;;;;;;;;;;10.93;100.00;100263.84;5133310;27;20460;-80
2021/10/15 05:29:18;;;;;;;;;;;;;;;10.93;100.00;100253.16;5134278;27;20010;-78
2021/10/15 05:31:44;;;;;;;40.13;19.83;;;;;;;10.91;100.00;100255.19;5132925;27;20434;-74
2021/10/15 05:34:09;;;;;;;36.80;20.40;;;;;;;10.87;100.00;100258.38;5132900;27;20035;-73
2021/10/15 05:36:35;;;;;;;40.70;21.23;;;;;;;10.87;100.00;100253.84;5132021;27;20100;-73
2021/10/15 05:39:00;;;;;;;39.88;21.70;;;;;;;10.90;100.00;100266.84;5132167;27;20168;-73
2021/10/15 05:41:26;;;;;;;39.33;21.00;;;;;;;10.92;100.00;100256.00;5114794;27;20034;-74
2021/10/15 05:43:52;;;;;;;36.67;20.73;;;;;;;10.89;100.00;100248.34;5132705;27;20123;-73
2021/10/15 05:46:18;;;;;;;40.90;22.58;;;;;;;10.80;100.00;100236.06;5132538;27;20034;-74
2021/10/15 05:48:43;;;;;;;37.10;22.73;;;;;;;10.86;100.00;100256.69;5132613;27;20456;-74
2021/10/15 05:51:09;;;;;;;44.23;24.63;;;;;;;10.85;100.00;100314.63;5132732;27;20388;-74
2021/10/15 05:53:35;;;;;;;52.90;26.65;;;;;;;10.87;100.00;100352.66;5130982;27;20395;-74
2021/10/15 06:01:17;;;;;;;11.88;5.88;;;;;;;10.52;100.00;100344.13;5131599;27;20031;-74
2021/10/15 06:03:47;;;;;;;10.35;3.40;;;;;;;10.31;100.00;100328.69;5114244;27;20042;-74
2021/10/15 06:14:27;;;;;;;2.03;0.75;;;;;;;9.85;100.00;100335.56;5131056;27;20063;-74
2021/10/15 06:17:00;;;;;;;2.47;0.60;;;;;;;9.85;100.00;100327.56;5131399;27;20114;-74
2021/10/15 06:19:27;;;;;;;1.02;0.55;;;;;;;9.84;100.00;100345.38;5131210;27;20095;-74
2021/10/15 06:21:54;;;;;;;2.63;0.70;;;;;;;9.66;100.00;100350.88;5131204;27;20030;-74
2021/10/15 06:24:20;;;;;;;2.20;0.77;;;;;;;9.51;100.00;100348.06;5130866;27;20038;-74
2021/10/15 06:26:46;;;;;;;1.60;0.50;;;;;;;9.39;100.00;100348.53;5131693;27;20114;-74
2021/10/15 06:29:12;;;;;;;3.40;0.50;;;;;;;9.40;100.00;100352.88;5131500;27;20035;-74
2021/10/15 06:31:40;;;;;;;3.85;0.40;;;;;;;9.36;100.00;100344.34;5113776;27;20480;-74
2021/10/15 06:34:05;;;;;;;6.13;0.85;;;;;;;9.38;100.00;100349.53;5130093;27;20035;-74
2021/10/15 06:36:31;;;;;;;4.47;1.40;;;;;;;9.36;100.00;100354.19;5130535;27;20053;-74
2021/10/15 06:38:56;;;;;;;2.13;0.50;;;;;;;9.28;100.00;100358.50;5131926;27;20030;-74
2021/10/15 06:41:22;;;;;;;1.07;0.40;;;;;;;9.27;100.00;100354.19;5131741;27;20705;-74
2021/10/15 06:43:47;;;;;;;2.85;0.60;;;;;;;9.22;100.00;100359.13;5131577;27;20114;-74
2021/10/15 06:46:13;;;;;;;2.83;0.63;;;;;;;9.12;100.00;100345.16;5130836;27;20360;-74
2021/10/15 06:48:39;;;;;;;1.87;1.13;;;;;;;9.18;100.00;100368.47;5130546;27;20330;-74
2021/10/15 06:51:05;;;;;;;;;;;;;;;9.09;100.00;100369.44;5131027;27;20474;-74
2021/10/15 06:53:30;;;;;;;3.33;0.90;;;;;;;9.01;100.00;100374.72;5130924;27;20365;-74
2021/10/15 06:55:56;;;;;;;4.55;1.15;;;;;;;9.03;100.00;100372.75;5130746;27;20474;-74
2021/10/15 06:58:21;;;;;;;6.27;0.83;;;;;;;9.07;100.00;100393.56;5131589;27;20031;-74
2021/10/15 07:00:47;;;;;;;1.03;0.40;;;;;;;9.07;100.00;100398.06;5113409;27;20061;-74
2021/10/15 07:03:18;;;;;;;4.43;1.00;;;;;;;9.04;100.00;100411.72;5130503;27;20035;-74
2021/10/15 07:05:44;;;;;;;8.27;1.35;;;;;;;8.97;100.00;100410.69;5112809;27;20039;-74
2021/10/15 07:08:10;;;;;;;5.28;1.27;;;;;;;9.02;100.00;100427.00;5130103;27;20130;-74
2021/10/15 07:10:37;;;;;;;3.65;0.93;;;;;;;8.96;100.00;100438.28;5130042;27;20122;-74
2021/10/15 07:13:03;;;;;;;4.85;0.98;;;;;;;8.85;100.00;100437.59;5130155;27;20458;-74
2021/10/15 07:15:29;;;;;;;1.50;0.57;;;;;;;8.78;100.00;100457.00;5129899;27;20039;-74
2021/10/15 07:17:54;;;;;;;4.53;0.65;;;;;;;8.72;100.00;100460.31;5130005;27;20417;-74
2021/10/15 07:20:20;;;;;;;5.13;0.90;;;;;;;8.68;100.00;100467.75;5130024;27;20038;-74
2021/10/15 07:22:45;;;;;;;4.70;1.35;;;;;;;8.69;100.00;100452.66;5130738;27;20588;-73
2021/10/15 07:25:11;;;;;;;4.70;1.27;;;;;;;8.66;100.00;100449.31;5129726;27;20508;-74
2021/10/15 07:27:39;;;;;;;5.65;0.80;;;;;;;8.62;100.00;100457.75;5129895;27;20042;-74
2021/10/15 07:30:07;;;;;;;3.85;0.80;;;;;;;8.63;100.00;100472.72;5112769;27;20042;-75
2021/10/15 07:32:33;;;;;;;7.95;1.10;;;;;;;8.61;100.00;100482.69;5112561;27;20023;-74
2021/10/15 07:34:59;;;;;;;8.73;1.15;;;;;;;8.50;100.00;100474.94;5130286;27;20475;-74
2021/10/15 07:37:25;;;;;;;13.03;1.57;;;;;;;8.64;100.00;100480.56;5130524;27;20092;-74
2021/10/15 07:39:51;;;;;;;3.47;1.20;;;;;;;8.67;100.00;100476.75;5130738;27;20336;-74
2021/10/15 07:42:17;;;;;;;6.93;1.23;;;;;;;8.65;100.00;100484.03;5129539;27;20058;-74
2021/10/15 07:44:42;;;;;;;2.50;0.80;;;;;;;8.76;100.00;100507.75;5129494;27;20069;-74
2021/10/15 07:47:09;;;;;;;4.65;1.10;;;;;;;8.80;100.00;100510.91;5112607;27;20407;-74
2021/10/15 07:49:34;;;;;;;9.90;1.35;;;;;;;8.84;100.00;100526.41;5112407;27;20035;-75
2021/10/15 07:52:00;;;;;;;6.88;1.48;;;;;;;8.89;100.00;100536.59;5112206;27;20352;-74
2021/10/15 07:54:26;;;;;;;4.23;1.10;;;;;;;8.90;100.00;100540.09;5129906;27;20329;-74
2021/10/15 07:56:52;;;;;;;8.02;1.45;;;;;;;8.94;100.00;100536.13;5129204;27;20289;-75
2021/10/15 07:59:17;;;;;;;6.40;1.48;;;;;;;8.84;100.00;100539.72;5130308;27;20031;-75
2021/10/15 08:01:44;;;;;;;9.77;1.50;;;;;;;8.88;100.00;100546.41;5129074;27;20039;-74
2021/10/15 08:04:09;;;;;;;1.98;1.08;;;;;;;8.94;100.00;100560.09;5128847;27;20120;-74
2021/10/15 08:06:35;;;;;;;6.30;1.48;;;;;;;8.88;100.00;100558.91;5111874;27;20066;-75
2021/10/15 08:09:01;;;;;;;6.32;2.10;;;;;;;8.82;100.00;100556.84;5130073;27;20046;-74
2021/10/15 08:11:26;;;;;;;9.63;2.10;;;;;;;8.72;100.00;100554.28;5128805;27;20039;-74
2021/10/15 08:13:52;;;;;;;11.35;1.40;;;;;;;8.77;100.00;100559.16;5111602;27;20243;-74
2021/10/15 08:16:19;;;;;;;9.50;1.43;;;;;;;8.79;100.00;100550.00;5129648;27;20043;-74
2021/10/15 08:18:46;;;;;;;9.65;1.70;;;;;;;8.84;100.00;100561.03;5129731;27;20099;-74
2021/10/15 08:21:12;;;;;;;9.13;1.42;;;;;;;8.87;100.00;100560.72;5128846;27;20063;-74
2021/10/15 08:23:39;;;;;;;8.85;2.15;;;;;;;8.90;100.00;100561.38;5128386;27;20038;-74
2021/10/15 08:26:05;;;;;;;6.43;1.73;;;;;;;8.87;100.00;100573.19;5129741;27;20155;-74
2021/10/15 08:28:33;;;;;;;5.27;1.27;;;;;;;8.90;100.00;100577.34;5111559;27;20463;-74
2021/10/15 08:30:59;;;;;;;11.18;1.40;;;;;;;9.03;100.00;100580.47;5128456;27;20292;-75
2021/10/15 08:33:25;;;;;;;13.43;1.40;;;;;;;8.87;100.00;100590.03;5127628;27;20035;-75
2021/10/15 08:35:51;;;;;;;6.95;1.27;;;;;;;9.00;100.00;100604.75;5128539;27;20054;-74
2021/10/15 08:38:16;;;;;;;14.13;2.40;;;;;;;9.07;100.00;100608.44;5129537;27;20019;-74
2021/10/15 08:40:45;;;;;;;11.38;2.22;;;;;;;9.04;100.00;100600.78;5128490;27;20474;-74
2021/10/15 08:43:10;;;;;;;8.40;1.40;;;;;;;9.20;100.00;100608.03;5128156;27;20088;-74
2021/10/15 08:45:36;;;;;;;13.67;2.87;;;;;;;9.23;100.00;100610.41;5110430;27;20051;-75
2021/10/15 08:48:03;;;;;;;15.40;2.07;;;;;;;9.08;100.00;100591.47;5128214;27;20038;-74
2021/10/15 08:50:29;;;;;;;14.88;2.20;;;;;;;9.02;100.00;100597.44;5129105;27;20035;-75
2021/10/15 08:52:55;;;;;;;14.43;1.58;;;;;;;9.10;100.00;100605.47;5128237;27;20118;-75
2021/10/15 08:55:21;;;;;;;10.77;1.85;;;;;;;9.18;100.00;100610.03;5127221;27;20172;-75
2021/10/15 08:57:57;;;;;;;16.38;2.70;;;;;;;9.18;100.00;100605.53;5128567;27;20470;-75
2021/10/15 09:00:32;;;;;;;8.30;1.83;;;;;;;9.45;100.00;100614.34;5129257;27;20043;-75
2021/10/15 09:03:21;;;;;;;11.10;2.20;;;;;;;9.40;100.00;100609.47;5110421;28;20035;-74
2021/10/15 09:05:55;;;;;;;14.38;2.42;;;;;;;9.40;100.00;100612.16;5128011;27;20035;-74
2021/10/15 09:08:21;;;;;;;9.48;1.90;;;;;;;9.45;100.00;100609.84;5128047;27;20760;-74
2021/10/15 09:10:47;;;;;;;8.57;2.35;;;;;;;9.53;100.00;100614.41;5110197;28;20023;-75
2021/10/15 09:13:17;;;;;;;10.15;1.90;;;;;;;9.58;100.00;100608.59;5128071;28;20038;-75
2021/10/15 09:15:49;;;;;;;12.90;2.28;;;;;;;9.79;100.00;100616.19;5110120;28;20081;-75
2021/10/15 09:18:17;;;;;;;15.48;2.80;;;;;;;9.78;100.00;100641.16;5127826;27;20099;-74
2021/10/15 09:20:45;;;;;;;14.90;1.77;;;;;;;9.66;100.00;100630.78;5128752;27;20761;-74
2021/10/15 09:23:12;;;;;;;14.70;2.17;;;;;;;9.81;100.00;100636.34;5110809;28;20100;-75
2021/10/15 09:25:44;;;;;;;17.67;2.38;;;;;;;9.68;100.00;100641.28;5127614;28;20117;-75
2021/10/15 09:28:16;;;;;;;16.80;2.55;;;;;;;9.71;100.00;100641.78;5127973;27;20092;-76
2021/10/15 09:30:44;;;;;;;8.00;1.63;;;;;;;9.72;100.00;100638.13;5128869;27;20031;-75
2021/10/15 09:33:10;;;;;;;11.52;1.80;;;;;;;9.95;100.00;100634.91;5127723;27;20076;-76
2021/10/15 09:35:35;;;;;;;11.43;2.53;;;;;;;9.70;100.00;100613.47;5127701;27;20091;-75
2021/10/15 09:38:05;;;;;;;10.23;1.60;;;;;;;9.90;100.00;100624.72;5129135;28;20534;-76
2021/10/15 09:40:37;;;;;;;11.48;1.80;;;;;;;9.94;100.00;100625.22;5129030;27;20555;-75
2021/10/15 09:43:06;;;;;;;10.70;1.88;;;;;;;10.12;100.00;100625.13;5128997;27;20057;-75
2021/10/15 09:45:41;;;;;;;8.95;2.03;;;;;;;11.56;100.00;100636.16;5127456;27;20055;-75
2021/10/15 09:48:25;;;;;;;13.10;1.92;;;;;;;12.19;100.00;100641.63;5127858;28;20031;-76
2021/10/15 09:51:14;;;;;;;12.82;2.33;;;;;;;13.29;95.65;100635.97;5110554;28;20043;-77
2021/10/15 09:53:41;;;;;;;13.35;1.70;;;;;;;14.12;90.06;100624.09;5128029;27;20046;-77
2021/10/15 09:56:07;;;;;;;15.30;2.72;;;;;;;14.36;84.84;100611.34;5128759;27;20062;-79
2021/10/15 09:58:33;;;;;;;8.38;1.77;;;;;;;14.91;83.86;100619.72;5110517;28;20092;-80
2021/10/15 10:00:59;;;;;;;13.43;1.95;;;;;;;14.68;80.04;100615.41;5110699;28;20035;-80
2021/10/15 10:03:28;;;;;;;11.00;2.35;;;;;;;15.24;79.60;100608.38;5127296;28;20111;-79
2021/10/15 10:05:53;;;;;;;7.65;1.77;;;;;;;15.42;77.16;100616.78;5127687;27;20046;-80
2021/10/15 10:08:19;;;;;;;10.55;2.20;;;;;;;15.31;76.15;100603.88;5128719;27;20043;-80
2021/10/15 10:10:46;;;;;;;11.03;1.87;;;;;;;16.14;76.41;100637.06;5112684;27;20110;-80
2021/10/15 10:13:14;;;;;;;9.73;1.98;;;;;;;15.13;74.17;100605.22;5131408;27;20038;-81
2021/10/15 10:15:43;;;;;;;9.57;1.92;;;;;;;15.22;75.01;100605.91;5131241;27;20523;-81
2021/10/15 10:18:22;;;;;;;8.25;2.50;;;;;;;15.56;75.60;100634.66;5131375;27;20034;-79
2021/10/15 10:20:54;;;;;;;12.88;2.38;;;;;;;15.34;71.54;100588.19;5131310;27;20030;-78
2021/10/15 10:23:47;;;;;;;10.68;2.33;;;;;;;15.16;73.97;100607.50;5131501;27;20053;-80
2021/10/15 10:26:18;;;;;;;14.15;2.25;;;;;;;15.20;74.00;100624.94;5114118;27;20039;-80
2021/10/15 10:28:57;;;;;;;13.27;2.22;;;;;;;15.32;75.10;100629.78;5132200;27;20039;-81
2021/10/15 10:31:23;;;;;;;9.60;1.75;;;;;;;14.88;72.72;100614.75;5131949;27;20372;-79
2021/10/15 10:34:00;;;;;;;10.35;1.80;;;;;;;15.18;72.19;100626.97;5131973;27;20035;-79
2021/10/15 10:36:28;;;;;;;12.93;2.10;;;;;;;15.51;73.26;100639.00;5132045;27;20042;-79
2021/10/15 10:38:53;;;;;;;4.72;1.90;;;;;;;16.04;69.60;100626.69;5131186;27;20026;-79
2021/10/15 10:41:22;;;;;;;9.55;1.40;;;;;;;16.09;70.49;100622.56;5130790;27;20041;-79
2021/10/15 10:43:47;;;;;;;10.18;1.83;;;;;;;16.30;70.41;100630.50;5131615;27;20031;-79
2021/10/15 10:46:15;;;;;;;9.63;2.07;;;;;;;15.80;69.96;100613.72;5113632;27;20155;-79
2021/10/15 10:48:46;;;;;;;11.90;3.63;;;;;;;15.72;70.96;100633.56;5131662;27;20030;-80
2021/10/15 10:51:16;;;;;;;19.63;2.90;;;;;;;15.51;70.21;100626.38;5113659;27;20062;-80
2021/10/15 10:54:00;;;;;;;11.00;2.58;;;;;;;15.27;71.49;100616.09;5130027;27;20114;-80
2021/10/15 10:56:38;;;;;;;13.75;2.72;;;;;;;15.83;69.58;100629.47;5131039;27;20046;-80
2021/10/15 10:59:23;;;;;;;18.73;3.00;;;;;;;15.90;69.82;100629.53;5132296;27;20444;-84
2021/10/15 11:01:48;;;;;;;9.50;2.35;;;;;;;15.96;69.41;100636.78;5132302;27;20479;-84
2021/10/15 11:04:27;;;;;;;9.93;2.30;;;;;;;14.53;71.61;100636.91;5115469;27;20047;-85
2021/10/15 11:07:08;;;;;;;12.82;1.98;;;;;;;15.38;70.64;100655.88;5132727;27;20648;-84
2021/10/15 11:09:48;;;;;;;9.65;1.98;;;;;;;14.64;72.12;100641.00;5115576;27;20035;-85
2021/10/15 11:12:21;;;;;;;13.73;1.80;;;;;;;14.76;71.70;100660.94;5132793;27;20098;-85
2021/10/15 11:15:19;;;;;;;12.02;2.47;;;;;;;15.56;70.94;100672.34;5132649;27;20379;-85
2021/10/15 11:17:47;;;;;;;16.60;3.83;;;;;;;16.48;68.22;100656.00;5081960;27;20379;-85
2021/10/15 11:20:19;;;;;;;8.18;1.80;;;;;;;15.76;66.18;100639.38;5133533;27;20140;-85
2021/10/15 11:22:56;;;;;;;6.95;1.92;;;;;;;15.17;67.12;100641.47;5115043;27;20581;-85
2021/10/15 11:25:34;;;;;;;9.60;2.17;;;;;;;15.59;68.52;100660.34;5115228;27;20049;-85
2021/10/15 11:28:05;;;;;;;16.38;2.45;;;;;;;15.42;67.77;100643.69;5132600;27;20038;-86
2021/10/15 11:30:34;;;;;;;13.15;3.58;;;;;;;15.01;69.05;100657.88;5115504;27;20045;-86
2021/10/15 11:33:01;;;;;;;13.38;2.28;;;;;;;14.88;69.89;100681.94;5115168;27;20015;-84